Time;durP1;ratioP1;P1;durP2;ratioP2;P2;SDS_P1;SDS_P2;PMS_P1;PMS_P2;Temp;Humidity;BMP_temperature;BMP_pressure;BME280_temperature;BME280_humidity;BME280_pressure;Samples;Min_cycle;Max_cycle;Signal;HPM_P1;HPM_P2
2021/04/18 00:00:29;;;;;;;17.60;7.93;;;4.30;85.50;;;;;;5020381;28;20129;-53
2021/04/18 00:02:55;;;;;;;19.08;7.57;;;4.20;86.00;;;;;;5028041;28;20045;-51
2021/04/18 00:05:23;;;;;;;21.35;7.95;;;4.20;85.80;;;;;;5032254;28;20118;-55
2021/04/18 00:07:50;;;;;;;15.43;7.15;;;4.20;86.10;;;;;;5031933;28;20093;-51
2021/04/18 00:10:17;;;;;;;16.33;7.38;;;4.30;85.70;;;;;;5022543;28;20515;-51
2021/04/18 00:15:16;;;;;;;15.68;6.03;;;4.20;85.70;;;;;;5019340;28;20058;-48
2021/04/18 00:17:42;;;;;;;15.70;6.97;;;4.20;85.00;;;;;;5025872;28;20068;-49
2021/04/18 00:20:11;;;;;;;14.68;5.20;;;4.10;84.60;;;;;;5031150;28;20042;-50
2021/04/18 00:22:42;;;;;;;12.27;5.80;;;4.00;84.20;;;;;;5031535;28;20045;-51
2021/04/18 00:25:09;;;;;;;16.55;6.80;;;3.90;83.80;;;;;;5009394;28;20148;-51
2021/04/18 00:27:35;;;;;;;15.40;6.90;;;3.90;84.20;;;;;;4998822;28;20127;-51
2021/04/18 00:30:01;;;;;;;16.60;6.13;;;3.80;84.50;;;;;;4999554;28;20084;-50
2021/04/18 00:32:26;;;;;;;13.93;5.50;;;3.80;84.40;;;;;;5000512;28;20210;-50
2021/04/18 00:34:52;;;;;;;12.75;5.65;;;3.70;83.90;;;;;;5004812;28;20149;-52
2021/04/18 00:37:17;;;;;;;15.50;5.93;;;3.60;83.70;;;;;;5008812;28;20038;-50
2021/04/18 00:39:45;;;;;;;14.30;6.35;;;3.50;84.10;;;;;;5008255;28;20418;-53
2021/04/18 00:42:12;;;;;;;14.93;7.47;;;3.30;84.40;;;;;;5007623;28;20115;-51
2021/04/18 00:44:38;;;;;;;17.10;7.30;;;3.30;85.20;;;;;;5005925;28;20444;-51
2021/04/18 00:47:04;;;;;;;17.25;7.50;;;3.30;85.60;;;;;;5011209;28;20046;-50
2021/04/18 00:49:30;;;;;;;17.83;7.85;;;3.30;86.10;;;;;;4999807;28;20061;-48
2021/04/18 00:51:55;;;;;;;16.35;7.05;;;3.30;86.80;;;;;;4993062;28;20038;-51
2021/04/18 00:54:21;;;;;;;15.95;6.80;;;3.30;86.60;;;;;;5004830;28;20050;-52
2021/04/18 00:56:47;;;;;;;14.70;6.50;;;3.40;87.10;;;;;;4995228;28;20038;-50
2021/04/18 00:59:14;;;;;;;12.70;6.25;;;3.30;86.30;;;;;;4992614;28;20038;-54
2021/04/18 01:01:39;;;;;;;20.48;6.72;;;3.30;86.90;;;;;;4996219;28;20038;-55
2021/04/18 01:04:06;;;;;;;17.95;6.95;;;3.30;86.10;;;;;;4998319;28;20041;-53
2021/04/18 01:06:31;;;;;;;16.40;6.75;;;3.30;85.90;;;;;;4999633;28;20084;-54
2021/04/18 01:08:58;;;;;;;20.63;6.78;;;3.30;85.50;;;;;;5006987;28;20046;-55
2021/04/18 01:11:24;;;;;;;16.95;6.43;;;3.20;85.40;;;;;;5009913;28;20042;-54
2021/04/18 01:13:50;;;;;;;24.13;6.93;;;3.20;85.40;;;;;;4995734;28;20042;-54
2021/04/18 01:16:16;;;;;;;15.02;7.07;;;3.10;85.40;;;;;;4998143;28;20046;-55
2021/04/18 01:18:42;;;;;;;19.38;8.52;;;3.10;85.40;;;;;;4993107;28;20043;-57
2021/04/18 01:21:09;;;;;;;15.88;7.15;;;3.10;85.80;;;;;;4995866;28;20045;-52
2021/04/18 01:23:34;;;;;;;16.17;8.15;;;3.10;86.90;;;;;;4992577;28;20038;-50
2021/04/18 01:26:00;;;;;;;19.10;7.75;;;3.10;87.00;;;;;;4992773;28;20045;-51
2021/04/18 01:28:26;;;;;;;18.98;7.70;;;3.10;86.90;;;;;;4997275;28;20405;-53
2021/04/18 01:30:52;;;;;;;21.73;8.13;;;3.20;87.20;;;;;;5010298;28;20418;-52
2021/04/18 01:33:19;;;;;;;15.75;7.13;;;3.20;87.20;;;;;;5008249;28;20073;-48
2021/04/18 01:35:47;;;;;;;16.67;8.63;;;3.30;87.10;;;;;;5004312;28;20413;-49
2021/04/18 01:38:14;;;;;;;15.68;7.55;;;3.30;87.20;;;;;;5007708;28;20046;-51
2021/04/18 01:40:40;;;;;;;15.30;8.00;;;3.30;87.20;;;;;;5002009;28;20046;-50
2021/04/18 01:43:06;;;;;;;17.92;7.13;;;3.30;87.30;;;;;;5001872;28;20050;-48
2021/04/18 01:45:32;;;;;;;20.83;7.60;;;3.30;86.90;;;;;;5002486;28;20414;-48
2021/04/18 01:47:59;;;;;;;17.75;8.25;;;3.30;87.10;;;;;;4995774;28;20049;-52
2021/04/18 01:50:26;;;;;;;17.65;8.23;;;3.30;87.40;;;;;;5000810;28;20050;-52
2021/04/18 01:52:52;;;;;;;13.90;7.45;;;3.30;87.50;;;;;;5009769;28;20052;-52
2021/04/18 01:55:19;;;;;;;15.07;6.57;;;3.30;87.30;;;;;;5007920;28;20052;-52
2021/04/18 01:57:44;;;;;;;18.48;5.88;;;3.30;86.90;;;;;;4996101;28;20046;-52
2021/04/18 02:00:12;;;;;;;10.15;5.43;;;3.20;85.30;;;;;;4994972;28;20586;-52
2021/04/18 02:02:38;;;;;;;23.70;6.63;;;3.00;84.90;;;;;;4997326;28;20048;-52
2021/04/18 02:05:04;;;;;;;11.07;5.80;;;2.90;84.40;;;;;;4997821;28;20038;-50
2021/04/18 02:07:30;;;;;;;16.58;6.32;;;2.70;84.60;;;;;;4996526;28;20046;-52
2021/04/18 02:09:55;;;;;;;19.40;6.75;;;2.60;85.20;;;;;;5002935;28;20125;-52
2021/04/18 02:12:21;;;;;;;18.08;6.65;;;2.50;85.10;;;;;;4992439;28;20121;-52
2021/04/18 02:14:46;;;;;;;18.60;6.90;;;2.40;85.20;;;;;;5009574;28;20468;-52
2021/04/18 02:17:12;;;;;;;13.63;6.45;;;2.50;85.70;;;;;;5010045;28;20046;-52
2021/04/18 02:19:38;;;;;;;15.55;6.90;;;2.20;86.00;;;;;;5009261;28;20532;-51
2021/04/18 02:22:03;;;;;;;18.35;7.25;;;2.20;86.60;;;;;;5006783;28;20037;-51
2021/04/18 02:24:29;;;;;;;16.52;7.68;;;2.10;87.60;;;;;;4996169;28;20759;-52
2021/04/18 02:26:55;;;;;;;22.17;8.73;;;2.20;88.00;;;;;;5006976;28;20057;-52
2021/04/18 02:29:21;;;;;;;23.25;9.52;;;2.20;87.80;;;;;;5008143;28;20053;-49
2021/04/18 02:31:46;;;;;;;13.57;7.70;;;2.20;88.20;;;;;;5004028;28;20105;-48
2021/04/18 02:34:12;;;;;;;14.55;8.55;;;2.20;87.70;;;;;;4994802;28;20038;-49
2021/04/18 02:36:38;;;;;;;19.10;7.95;;;2.20;87.70;;;;;;4999150;28;20092;-52
2021/04/18 02:39:05;;;;;;;20.05;7.15;;;2.20;87.80;;;;;;4990497;28;20038;-52
2021/04/18 02:41:31;;;;;;;12.43;6.90;;;2.20;87.90;;;;;;5008455;28;20068;-53
2021/04/18 02:43:57;;;;;;;13.23;6.72;;;2.20;87.40;;;;;;4994324;28;20125;-53
2021/04/18 02:46:23;;;;;;;17.02;6.90;;;2.10;87.30;;;;;;4997019;28;20138;-52
2021/04/18 02:48:49;;;;;;;14.27;7.32;;;2.20;87.20;;;;;;5000183;28;20077;-50
2021/04/18 02:51:14;;;;;;;20.50;7.45;;;2.10;87.30;;;;;;4994619;28;20042;-51
2021/04/18 02:53:40;;;;;;;18.58;7.82;;;2.00;87.40;;;;;;5000306;28;20068;-51
2021/04/18 02:56:06;;;;;;;19.20;8.27;;;2.00;87.60;;;;;;5007141;28;20505;-50
2021/04/18 02:58:32;;;;;;;22.95;7.95;;;2.00;87.90;;;;;;4995189;28;20034;-51
2021/04/18 03:00:58;;;;;;;25.05;8.48;;;2.00;88.40;;;;;;4994330;28;20427;-50
2021/04/18 03:03:23;;;;;;;24.08;8.65;;;2.00;88.40;;;;;;4996618;28;20050;-49
2021/04/18 03:05:49;;;;;;;32.05;9.35;;;2.00;88.90;;;;;;4999916;28;20054;-50
2021/04/18 03:08:15;;;;;;;30.05;9.48;;;2.00;89.00;;;;;;5012348;28;20041;-49
2021/04/18 03:10:40;;;;;;;35.50;7.80;;;2.00;89.30;;;;;;5007982;28;20054;-52
2021/04/18 03:13:06;;;;;;;46.92;8.52;;;2.00;88.40;;;;;;4995672;28;20454;-53
2021/04/18 03:15:31;;;;;;;60.90;10.70;;;2.00;87.90;;;;;;5006500;28;20038;-48
2021/04/18 03:17:57;;;;;;;32.30;9.93;;;1.90;88.80;;;;;;5010856;28;20048;-52
2021/04/18 03:20:23;;;;;;;26.02;10.00;;;1.90;88.70;;;;;;5003191;28;20506;-55
2021/04/18 03:22:51;;;;;;;24.63;9.63;;;1.90;89.50;;;;;;4996321;28;20043;-53
2021/04/18 03:25:17;;;;;;;23.13;8.95;;;1.90;89.20;;;;;;5002998;28;20053;-52
2021/04/18 03:27:43;;;;;;;22.38;8.50;;;1.90;89.30;;;;;;5010151;28;20046;-53
2021/04/18 03:30:09;;;;;;;20.95;8.70;;;1.90;89.50;;;;;;5000814;28;20034;-53
2021/04/18 03:32:35;;;;;;;21.23;9.18;;;1.90;89.10;;;;;;5002990;28;20482;-52
2021/04/18 03:35:03;;;;;;;15.20;8.00;;;1.90;89.10;;;;;;4996595;28;20045;-52
2021/04/18 03:37:29;;;;;;;23.13;9.23;;;1.90;88.70;;;;;;5000815;28;20045;-53
2021/04/18 03:39:55;;;;;;;17.73;8.65;;;1.80;88.50;;;;;;5005550;28;20034;-53
2021/04/18 03:42:21;;;;;;;20.13;8.32;;;1.80;88.50;;;;;;5002105;28;20038;-50
2021/04/18 03:44:47;;;;;;;18.48;8.55;;;1.80;88.70;;;;;;5008217;28;20042;-52
2021/04/18 03:47:12;;;;;;;29.15;9.00;;;1.80;88.60;;;;;;4996695;28;20088;-50
2021/04/18 03:49:38;;;;;;;29.17;8.23;;;1.70;88.70;;;;;;5001231;28;20041;-52
2021/04/18 03:52:04;;;;;;;35.95;9.80;;;1.70;88.50;;;;;;4997714;28;20042;-50
2021/04/18 03:54:30;;;;;;;51.72;9.23;;;1.60;88.40;;;;;;5001316;28;20418;-51
2021/04/18 03:56:55;;;;;;;29.45;7.63;;;1.50;88.50;;;;;;4998856;28;20069;-53
2021/04/18 03:59:21;;;;;;;25.15;7.60;;;1.50;89.00;;;;;;4998471;28;20517;-53
2021/04/18 04:01:47;;;;;;;25.33;8.82;;;1.40;89.20;;;;;;4999417;28;20094;-53
2021/04/18 04:04:13;;;;;;;46.92;9.70;;;1.40;89.90;;;;;;5000695;28;20046;-52
2021/04/18 04:06:38;;;;;;;20.77;7.47;;;1.40;90.00;;;;;;5010700;28;20509;-52
2021/04/18 04:09:05;;;;;;;19.98;6.63;;;1.40;89.90;;;;;;5002753;28;20048;-52
2021/04/18 04:11:31;;;;;;;16.45;6.60;;;1.40;90.20;;;;;;5003923;28;20043;-51
2021/04/18 04:13:56;;;;;;;19.45;6.55;;;1.40;90.10;;;;;;5000377;28;20104;-52
2021/04/18 04:16:22;;;;;;;26.02;7.93;;;1.40;89.90;;;;;;5000522;28;20035;-49
2021/04/18 04:18:48;;;;;;;24.30;6.88;;;1.50;89.90;;;;;;5010845;28;20525;-50
2021/04/18 04:21:14;;;;;;;31.70;7.15;;;1.40;89.80;;;;;;5003416;28;20125;-49
2021/04/18 04:23:40;;;;;;;39.90;7.70;;;1.40;89.50;;;;;;4996831;28;20075;-52
2021/04/18 04:26:07;;;;;;;29.10;7.88;;;1.30;89.80;;;;;;5012008;28;20030;-50
2021/04/18 04:28:33;;;;;;;52.50;8.68;;;1.30;89.30;;;;;;5008435;28;20034;-52
2021/04/18 04:30:59;;;;;;;82.95;9.05;;;1.30;89.80;;;;;;5005231;28;20056;-54
2021/04/18 04:33:25;;;;;;;58.58;8.70;;;1.20;89.90;;;;;;4998992;28;20038;-53
2021/04/18 04:35:51;;;;;;;63.20;8.43;;;1.20;90.10;;;;;;4995107;28;20046;-53
2021/04/18 04:38:16;;;;;;;56.90;8.80;;;1.20;90.20;;;;;;4999602;28;20069;-51
2021/04/18 04:40:42;;;;;;;32.88;7.95;;;1.20;90.30;;;;;;5002196;28;20046;-51
2021/04/18 04:43:08;;;;;;;51.55;8.23;;;1.20;90.60;;;;;;5003750;28;20233;-51
2021/04/18 04:45:34;;;;;;;41.58;8.93;;;1.20;90.40;;;;;;5003923;28;20504;-54
2021/04/18 04:48:00;;;;;;;34.30;9.18;;;1.30;90.50;;;;;;5003762;28;20041;-48
2021/04/18 04:50:26;;;;;;;13.38;8.45;;;1.30;90.50;;;;;;4996693;28;20346;-48
2021/04/18 04:52:53;;;;;;;34.60;10.38;;;1.40;90.60;;;;;;4995724;28;20042;-48
2021/04/18 04:55:18;;;;;;;41.60;10.15;;;1.50;91.00;;;;;;4995675;28;20154;-50
2021/04/18 04:57:44;;;;;;;36.67;9.57;;;1.50;91.20;;;;;;5001740;28;20550;-51
2021/04/18 05:00:10;;;;;;;34.25;9.18;;;1.60;91.60;;;;;;4996493;28;20116;-52
2021/04/18 05:02:36;;;;;;;15.65;8.75;;;1.70;91.60;;;;;;5003777;28;20418;-53
2021/04/18 05:05:02;;;;;;;13.65;8.55;;;1.80;91.40;;;;;;5004024;28;20053;-53
2021/04/18 05:07:27;;;;;;;16.45;9.00;;;1.70;91.00;;;;;;5005364;28;20092;-52
2021/04/18 05:09:53;;;;;;;16.88;8.43;;;1.70;91.10;;;;;;5000076;28;20478;-53
2021/04/18 05:12:19;;;;;;;14.52;8.63;;;1.70;91.10;;;;;;5004020;28;20046;-51
2021/04/18 05:14:45;;;;;;;38.58;8.57;;;1.70;90.80;;;;;;4996112;28;20397;-52
2021/04/18 05:17:11;;;;;;;52.70;9.70;;;1.70;90.90;;;;;;5000956;28;20345;-51
2021/04/18 05:19:36;;;;;;;56.58;9.25;;;1.80;90.80;;;;;;4995801;28;20116;-52
2021/04/18 05:22:02;;;;;;;55.72;9.45;;;1.70;90.60;;;;;;4999267;28;20387;-53
2021/04/18 05:24:28;;;;;;;59.42;9.73;;;1.70;90.70;;;;;;4998978;28;20038;-52
2021/04/18 05:26:54;;;;;;;46.65;9.32;;;1.60;90.70;;;;;;5002608;28;20473;-51
2021/04/18 05:29:21;;;;;;;56.13;10.00;;;1.60;90.80;;;;;;5005579;28;20065;-53
2021/04/18 05:31:47;;;;;;;51.78;9.50;;;1.60;90.90;;;;;;5002527;28;20046;-52
2021/04/18 05:34:13;;;;;;;46.92;9.70;;;1.60;91.00;;;;;;4997550;28;20104;-52
2021/04/18 05:36:39;;;;;;;62.40;10.50;;;1.60;90.80;;;;;;4994164;28;20046;-53
2021/04/18 05:39:08;;;;;;;34.22;8.93;;;1.60;90.90;;;;;;4994801;28;20112;-52
2021/04/18 05:41:35;;;;;;;27.92;9.30;;;1.60;91.00;;;;;;4994292;28;20117;-52
2021/04/18 05:44:01;;;;;;;57.65;9.55;;;1.60;91.30;;;;;;5000675;28;20671;-50
2021/04/18 05:46:27;;;;;;;51.58;8.63;;;1.70;91.00;;;;;;4994469;28;20537;-50
2021/04/18 05:48:53;;;;;;;40.20;9.73;;;1.70;91.20;;;;;;5006782;28;20041;-53
2021/04/18 05:51:19;;;;;;;16.05;8.10;;;1.70;91.10;;;;;;5003492;28;20042;-54
2021/04/18 05:53:44;;;;;;;24.80;9.40;;;1.70;91.40;;;;;;4999356;28;20100;-52
2021/04/18 05:56:10;;;;;;;28.67;9.85;;;1.80;91.40;;;;;;4997200;28;20122;-51
2021/04/18 05:58:35;;;;;;;19.38;7.72;;;1.90;91.20;;;;;;4997760;28;20038;-51
2021/04/18 06:01:01;;;;;;;38.75;9.52;;;1.90;91.20;;;;;;4999852;28;20222;-53
2021/04/18 06:03:27;;;;;;;21.08;9.07;;;2.00;91.20;;;;;;5002334;28;20108;-53
2021/04/18 06:05:52;;;;;;;51.38;9.13;;;2.00;91.20;;;;;;5005617;28;20466;-52
2021/04/18 06:08:18;;;;;;;34.60;8.77;;;2.00;91.20;;;;;;4996969;28;20074;-51
2021/04/18 06:10:44;;;;;;;16.50;8.40;;;2.10;91.20;;;;;;5009903;28;20073;-52
2021/04/18 06:13:09;;;;;;;13.93;8.50;;;2.10;91.30;;;;;;5007143;28;20038;-53
2021/04/18 06:15:35;;;;;;;18.17;9.73;;;2.20;91.10;;;;;;4999448;28;20047;-53
2021/04/18 06:18:00;;;;;;;13.57;8.70;;;2.20;91.10;;;;;;4994207;28;20046;-49
2021/04/18 06:20:26;;;;;;;16.30;10.68;;;2.40;91.00;;;;;;4990587;28;20043;-49
2021/04/18 06:22:52;;;;;;;17.08;10.45;;;2.40;91.10;;;;;;5003871;28;20099;-51
2021/04/18 06:25:17;;;;;;;13.63;9.35;;;2.60;91.20;;;;;;4999435;28;20034;-53
2021/04/18 06:27:44;;;;;;;16.30;10.07;;;2.70;91.20;;;;;;5008120;28;20041;-51
2021/04/18 06:30:11;;;;;;;19.98;11.27;;;2.80;91.40;;;;;;4997954;28;20092;-52
2021/04/18 06:32:36;;;;;;;16.52;10.15;;;3.00;91.80;;;;;;5005458;28;20262;-53
2021/04/18 06:35:04;;;;;;;17.30;10.98;;;3.10;92.00;;;;;;4997864;28;20136;-53
2021/04/18 06:37:29;;;;;;;17.65;11.30;;;3.20;92.20;;;;;;5003100;28;20053;-53
2021/04/18 06:39:55;;;;;;;13.55;9.52;;;3.30;92.10;;;;;;5007551;28;20030;-52
2021/04/18 06:42:23;;;;;;;18.23;10.95;;;3.40;92.00;;;;;;4994343;28;20049;-50
2021/04/18 06:44:50;;;;;;;18.73;11.38;;;3.60;91.90;;;;;;4997936;28;20121;-51
2021/04/18 06:47:16;;;;;;;17.30;10.88;;;3.70;91.90;;;;;;4997997;28;20418;-51
2021/04/18 06:49:42;;;;;;;17.40;10.80;;;3.80;91.90;;;;;;5001390;28;20111;-52
2021/04/18 06:52:08;;;;;;;19.15;11.48;;;3.90;92.10;;;;;;5001105;28;20505;-52
2021/04/18 06:54:35;;;;;;;16.60;11.30;;;4.10;91.80;;;;;;4997504;28;20039;-53
2021/04/18 06:57:01;;;;;;;14.52;10.38;;;4.10;91.90;;;;;;5003843;28;20052;-51
2021/04/18 06:59:27;;;;;;;16.27;9.93;;;4.30;91.80;;;;;;5002705;28;20042;-51
2021/04/18 07:01:53;;;;;;;17.38;10.93;;;4.40;92.20;;;;;;5006206;28;20045;-53
2021/04/18 07:04:20;;;;;;;17.23;10.55;;;4.50;92.00;;;;;;5007826;28;20057;-52
2021/04/18 07:06:53;;;;;;;14.65;10.38;;;4.60;91.80;;;;;;5005346;28;20042;-51
2021/04/18 07:09:21;;;;;;;17.52;11.60;;;4.70;91.70;;;;;;4998046;28;20042;-53
2021/04/18 07:11:48;;;;;;;19.92;10.77;;;4.80;92.00;;;;;;5004636;28;20092;-53
2021/04/18 07:14:24;;;;;;;15.60;10.52;;;4.90;91.80;;;;;;4999833;28;20508;-52
2021/04/18 07:16:51;;;;;;;17.17;11.15;;;5.00;91.80;;;;;;5003796;28;20137;-53
2021/04/18 07:19:26;;;;;;;16.17;10.50;;;5.10;91.50;;;;;;5002476;28;20060;-53
2021/04/18 07:21:55;;;;;;;15.75;10.90;;;5.20;91.60;;;;;;4999945;28;20061;-52
2021/04/18 07:24:23;;;;;;;15.73;10.77;;;5.30;91.50;;;;;;4999329;28;20050;-50
2021/04/18 07:26:56;;;;;;;17.25;10.55;;;5.40;91.30;;;;;;5005572;28;20100;-53
2021/04/18 07:29:23;;;;;;;18.63;10.65;;;5.50;91.40;;;;;;5004566;28;20054;-50
2021/04/18 07:31:49;;;;;;;14.43;9.95;;;5.60;91.30;;;;;;5004136;28;20061;-52
2021/04/18 07:34:20;;;;;;;16.13;10.25;;;5.70;91.10;;;;;;5005183;28;20415;-52
2021/04/18 07:36:49;;;;;;;17.75;10.95;;;5.80;91.10;;;;;;4998619;28;20038;-52
2021/04/18 07:39:16;;;;;;;17.15;10.68;;;5.90;91.00;;;;;;5006311;28;20093;-53
2021/04/18 07:41:47;;;;;;;17.17;10.52;;;6.10;90.90;;;;;;5003523;28;20044;-51
2021/04/18 07:44:18;;;;;;;17.50;10.93;;;6.20;90.80;;;;;;4998774;28;20078;-53
2021/04/18 07:46:46;;;;;;;15.48;10.15;;;6.30;90.50;;;;;;4996428;28;20107;-51
2021/04/18 07:49:13;;;;;;;18.38;10.15;;;6.40;90.50;;;;;;4994497;28;20105;-50
2021/04/18 07:51:42;;;;;;;15.40;9.88;;;6.60;90.50;;;;;;5002991;28;20030;-52
2021/04/18 07:54:08;;;;;;;18.48;10.35;;;6.80;90.20;;;;;;5007364;28;20421;-52
2021/04/18 07:56:34;;;;;;;16.05;10.68;;;6.90;90.70;;;;;;4999368;28;20049;-54
2021/04/18 07:59:01;;;;;;;14.98;9.63;;;7.20;90.70;;;;;;5009147;28;20112;-54
2021/04/18 08:01:26;;;;;;;15.65;9.70;;;7.50;90.50;;;;;;5006954;28;20061;-51
2021/04/18 08:03:52;;;;;;;14.95;9.32;;;7.80;90.00;;;;;;5008990;28;20041;-55
2021/04/18 08:06:19;;;;;;;17.02;8.80;;;8.10;89.30;;;;;;5004719;28;20042;-53
2021/04/18 08:08:49;;;;;;;16.83;9.43;;;8.40;88.30;;;;;;5004746;28;20096;-53
2021/04/18 08:11:17;;;;;;;18.20;11.30;;;8.50;87.00;;;;;;5008489;28;20053;-54
2021/04/18 08:13:45;;;;;;;15.68;9.60;;;8.70;85.90;;;;;;5005738;28;20077;-54
2021/04/18 08:16:11;;;;;;;14.65;8.38;;;8.90;85.70;;;;;;5005455;28;20117;-52
2021/04/18 08:18:43;;;;;;;12.95;8.30;;;9.10;85.50;;;;;;5006653;28;20124;-54
2021/04/18 08:21:29;;;;;;;12.88;7.50;;;9.40;84.80;;;;;;5008206;28;20491;-54
2021/04/18 08:23:55;;;;;;;13.63;7.07;;;9.50;82.60;;;;;;5007940;28;20399;-51
2021/04/18 08:26:23;;;;;;;15.25;8.10;;;9.50;82.60;;;;;;5003942;28;20053;-54
2021/04/18 08:28:52;;;;;;;27.00;16.10;;;9.50;81.80;;;;;;5007717;28;20034;-54
2021/04/18 08:31:38;;;;;;;11.43;7.38;;;9.60;80.80;;;;;;5006376;28;20037;-54
2021/04/18 08:34:05;;;;;;;11.40;6.35;;;9.80;80.70;;;;;;4987311;28;20042;-53
2021/04/18 08:36:34;;;;;;;12.95;6.30;;;9.90;80.40;;;;;;5007245;28;20042;-53
2021/04/18 08:39:05;;;;;;;14.63;6.38;;;10.00;79.00;;;;;;5005503;28;20477;-53
2021/04/18 08:41:37;;;;;;;13.27;5.82;;;10.30;77.50;;;;;;5007838;28;20087;-50
2021/04/18 08:44:30;;;;;;;11.05;5.57;;;10.40;73.20;;;;;;5007801;28;20390;-55
2021/04/18 08:47:01;;;;;;;11.73;5.50;;;10.50;70.60;;;;;;5006148;28;20057;-53
2021/04/18 08:49:38;;;;;;;11.25;5.80;;;10.50;73.90;;;;;;5009070;28;20065;-54
2021/04/18 08:52:12;;;;;;;11.93;5.93;;;10.40;70.90;;;;;;5004868;28;20104;-54
2021/04/18 08:54:44;;;;;;;14.43;6.35;;;10.50;71.10;;;;;;5006269;28;20038;-56
2021/04/18 08:57:16;;;;;;;13.57;6.68;;;10.50;71.70;;;;;;5006405;28;20398;-52
2021/04/18 08:59:47;;;;;;;9.95;5.97;;;10.60;72.30;;;;;;5004997;28;20065;-50
2021/04/18 09:02:14;;;;;;;11.83;6.57;;;10.80;73.10;;;;;;5005526;28;20460;-54
2021/04/18 09:04:45;;;;;;;13.48;7.32;;;11.00;72.50;;;;;;5007601;28;20454;-52
2021/04/18 09:07:19;;;;;;;11.27;7.72;;;11.20;72.70;;;;;;5006360;28;20125;-54
2021/04/18 09:09:47;;;;;;;15.50;7.55;;;11.50;70.00;;;;;;5006089;28;20037;-54
2021/04/18 09:12:15;;;;;;;14.55;7.65;;;11.60;70.80;;;;;;5007306;28;20402;-56
2021/04/18 09:14:44;;;;;;;13.25;6.63;;;11.80;70.70;;;;;;5007782;28;20056;-52
2021/04/18 09:17:14;;;;;;;13.88;7.03;;;11.90;69.90;;;;;;5006178;28;20069;-52
2021/04/18 09:19:46;;;;;;;12.80;6.43;;;11.90;69.90;;;;;;5001151;28;20030;-50
2021/04/18 09:22:13;;;;;;;11.70;6.35;;;12.00;68.80;;;;;;5000048;28;20447;-50
2021/04/18 09:24:47;;;;;;;18.27;6.63;;;12.10;69.40;;;;;;5004803;28;20041;-53
2021/04/18 09:27:15;;;;;;;11.63;7.30;;;12.20;68.70;;;;;;5002895;28;20042;-50
2021/04/18 09:29:51;;;;;;;16.95;6.03;;;12.30;67.90;;;;;;5006447;28;20054;-51
2021/04/18 09:32:22;;;;;;;11.80;5.90;;;12.40;66.60;;;;;;5003887;28;20057;-50
2021/04/18 09:34:49;;;;;;;14.07;6.22;;;12.50;65.10;;;;;;5003771;28;20034;-50
2021/04/18 09:37:18;;;;;;;9.90;6.28;;;12.50;65.80;;;;;;5006118;28;20490;-50
2021/04/18 09:39:49;;;;;;;12.70;6.80;;;12.60;66.30;;;;;;5008354;28;20036;-54
2021/04/18 09:42:14;;;;;;;11.23;6.75;;;12.70;66.80;;;;;;5009105;28;20120;-52
2021/04/18 09:44:46;;;;;;;11.50;6.03;;;12.80;65.90;;;;;;5009069;28;20033;-53
2021/04/18 09:47:26;;;;;;;11.82;7.00;;;12.90;65.70;;;;;;5008916;28;20037;-52
2021/04/18 09:49:59;;;;;;;10.85;6.53;;;13.10;64.80;;;;;;5005992;28;20033;-51
2021/04/18 09:52:38;;;;;;;10.43;6.25;;;13.20;65.20;;;;;;5007171;28;20100;-52
2021/04/18 09:55:13;;;;;;;12.73;6.18;;;13.20;65.20;;;;;;5007810;28;20525;-51
2021/04/18 09:57:46;;;;;;;12.00;6.43;;;13.30;64.20;;;;;;5002957;28;20132;-55
2021/04/18 10:00:19;;;;;;;;;;;13.30;65.20;;;;;;5008240;28;20030;-53
2021/04/18 10:03:11;;;;;;;9.88;5.38;;;13.40;61.50;;;;;;5004888;28;19917;-53
2021/04/18 10:05:57;;;;;;;12.18;5.32;;;13.50;58.80;;;;;;5005625;28;20387;-52
2021/04/18 10:08:27;;;;;;;10.27;5.70;;;13.60;61.70;;;;;;5001506;28;20281;-52
2021/04/18 10:11:10;;;;;;;11.48;6.28;;;13.60;61.20;;;;;;5007520;28;20410;-51
2021/04/18 10:13:50;;;;;;;12.43;5.90;;;13.70;60.10;;;;;;5000742;28;20406;-54
2021/04/18 10:16:19;;;;;;;9.82;5.90;;;13.90;59.10;;;;;;5005292;28;20042;-54
2021/04/18 10:19:14;;;;;;;9.35;5.57;;;14.00;58.80;;;;;;5003594;28;20132;-52
2021/04/18 10:21:42;;;;;;;11.73;5.85;;;14.10;55.20;;;;;;5007019;28;20053;-53
2021/04/18 10:24:33;;;;;;;12.55;6.10;;;14.10;56.30;;;;;;5005044;28;20034;-50
2021/04/18 10:27:00;;;;;;;12.30;6.00;;;14.10;57.70;;;;;;5002643;28;20076;-52
2021/04/18 10:29:27;;;;;;;9.60;5.72;;;14.20;57.00;;;;;;4997845;28;20429;-56
2021/04/18 10:31:52;;;;;;;12.05;6.30;;;14.30;57.90;;;;;;4995658;28;20049;-54
2021/04/18 10:34:18;;;;;;;10.15;6.10;;;14.40;59.00;;;;;;4997384;28;20034;-54
2021/04/18 10:36:46;;;;;;;9.68;5.65;;;14.50;58.10;;;;;;4997548;28;20121;-53
2021/04/18 10:39:14;;;;;;;9.50;5.22;;;14.50;56.20;;;;;;4991490;28;20046;-57
2021/04/18 10:41:40;;;;;;;11.23;5.63;;;14.50;55.60;;;;;;4990900;28;20529;-54
2021/04/18 10:44:06;;;;;;;9.63;5.57;;;14.60;54.30;;;;;;4999757;28;20045;-57
2021/04/18 10:46:32;;;;;;;12.85;6.00;;;14.70;53.60;;;;;;5015311;28;20046;-51
2021/04/18 10:48:57;;;;;;;11.00;5.88;;;14.70;54.80;;;;;;4993388;28;20042;-55
2021/04/18 10:51:23;;;;;;;11.82;5.45;;;14.90;53.20;;;;;;4990140;28;20078;-54
2021/04/18 10:53:49;;;;;;;9.50;6.00;;;14.90;54.40;;;;;;4994023;28;20050;-52
2021/04/18 10:56:15;;;;;;;9.50;5.32;;;15.00;54.10;;;;;;4991188;28;20454;-53
2021/04/18 10:58:41;;;;;;;11.35;5.88;;;15.10;55.70;;;;;;5000710;28;20038;-53
2021/04/18 11:01:06;;;;;;;9.00;5.40;;;15.20;54.70;;;;;;4995473;28;20046;-53
2021/04/18 11:03:32;;;;;;;13.43;5.68;;;15.20;54.60;;;;;;4998512;28;20348;-55
2021/04/18 11:05:57;;;;;;;9.75;4.80;;;15.20;53.20;;;;;;5002277;28;20069;-56
2021/04/18 11:08:23;;;;;;;7.10;3.92;;;15.20;53.70;;;;;;5001753;28;20034;-54
2021/04/18 11:10:50;;;;;;;8.60;4.18;;;15.30;50.00;;;;;;5002352;28;20044;-53
2021/04/18 11:13:16;;;;;;;8.52;3.90;;;15.30;51.20;;;;;;5001853;28;20140;-55
2021/04/18 11:15:41;;;;;;;9.05;4.50;;;15.40;48.60;;;;;;4991267;28;20038;-52
2021/04/18 11:18:10;;;;;;;9.82;4.88;;;15.40;49.00;;;;;;4999629;28;20141;-55
2021/04/18 11:20:36;;;;;;;9.85;5.43;;;15.40;48.80;;;;;;5002518;28;20038;-55
2021/04/18 11:23:02;;;;;;;11.77;5.50;;;15.40;49.20;;;;;;5001665;28;20592;-55
2021/04/18 11:25:28;;;;;;;9.50;5.22;;;15.40;49.30;;;;;;5006612;28;20133;-56
2021/04/18 11:27:54;;;;;;;11.82;5.25;;;15.40;50.80;;;;;;5006480;28;20557;-55
2021/04/18 11:30:20;;;;;;;10.38;5.60;;;15.40;51.80;;;;;;5006517;28;20414;-55
2021/04/18 11:32:46;;;;;;;10.07;5.90;;;15.50;52.30;;;;;;4997499;28;20137;-54
2021/04/18 11:35:11;;;;;;;10.80;5.70;;;15.30;51.90;;;;;;5011327;28;20118;-56
2021/04/18 11:37:38;;;;;;;10.68;6.07;;;15.40;52.20;;;;;;4998650;28;20038;-55
2021/04/18 11:40:05;;;;;;;13.40;6.38;;;15.50;52.40;;;;;;4994668;28;20034;-56
2021/04/18 11:42:31;;;;;;;10.02;5.40;;;15.50;52.80;;;;;;4995279;28;20046;-56
2021/04/18 11:45:00;;;;;;;9.25;4.88;;;15.60;53.40;;;;;;4998314;28;20053;-56
2021/04/18 11:47:26;;;;;;;9.88;5.43;;;15.80;52.30;;;;;;4999488;28;20581;-53
2021/04/18 11:49:52;;;;;;;9.27;4.90;;;16.00;49.30;;;;;;5007505;28;20037;-56
2021/04/18 11:52:18;;;;;;;9.38;4.47;;;16.10;48.50;;;;;;5000298;28;20051;-55
2021/04/18 11:54:43;;;;;;;8.82;4.82;;;16.20;47.40;;;;;;5001799;28;20392;-56
2021/04/18 11:57:09;;;;;;;7.13;4.60;;;16.20;47.10;;;;;;5004789;28;20042;-56
2021/04/18 11:59:37;;;;;;;9.30;4.63;;;16.00;48.60;;;;;;5010289;28;20433;-55
2021/04/18 12:02:03;;;;;;;8.80;4.70;;;15.90;47.80;;;;;;5006812;28;20063;-55
2021/04/18 12:04:28;;;;;;;9.20;4.55;;;15.80;47.70;;;;;;5005202;28;20048;-54
2021/04/18 12:06:54;;;;;;;7.18;4.47;;;15.80;48.40;;;;;;5000557;28;20474;-55
2021/04/18 12:09:20;;;;;;;9.65;5.03;;;15.90;47.30;;;;;;5005483;28;20558;-56
2021/04/18 12:11:46;;;;;;;11.07;4.97;;;15.80;47.40;;;;;;4999792;28;20122;-54
2021/04/18 12:14:11;;;;;;;10.60;4.78;;;15.90;48.10;;;;;;4996489;28;20437;-56
2021/04/18 12:16:37;;;;;;;10.20;4.35;;;15.70;48.10;;;;;;4996435;28;20498;-56
2021/04/18 12:19:03;;;;;;;9.23;4.18;;;15.70;49.00;;;;;;4998919;28;20038;-56
2021/04/18 12:21:29;;;;;;;7.63;4.20;;;15.90;47.30;;;;;;5005605;28;20064;-56
2021/04/18 12:23:56;;;;;;;6.85;4.05;;;16.00;48.10;;;;;;5005575;28;20046;-54
2021/04/18 12:26:22;;;;;;;6.38;4.13;;;16.30;45.50;;;;;;5002761;28;20125;-56
2021/04/18 12:28:48;;;;;;;7.93;4.13;;;16.40;46.90;;;;;;5000728;28;20038;-56
2021/04/18 12:31:14;;;;;;;6.93;3.90;;;16.50;44.30;;;;;;4994953;28;20522;-54
2021/04/18 12:33:39;;;;;;;8.32;4.43;;;16.60;45.00;;;;;;4999647;28;20407;-56
2021/04/18 12:36:05;;;;;;;6.93;4.18;;;16.50;45.50;;;;;;5000913;28;20520;-54
2021/04/18 12:38:32;;;;;;;8.32;4.53;;;16.60;45.50;;;;;;5004688;28;20046;-53
2021/04/18 12:40:58;;;;;;;6.35;4.28;;;16.60;45.10;;;;;;5001906;28;20045;-54
2021/04/18 12:43:25;;;;;;;7.32;4.25;;;16.70;45.60;;;;;;5003306;28;20046;-56
2021/04/18 12:45:51;;;;;;;9.60;4.43;;;16.70;46.40;;;;;;4995162;28;20422;-56